Aérodrome :
LOGIN :

S'inscrire | Disclaimer

   EN    FR    IT 

 










Légende :    VFR   VFR Marginal   IFR   IFR Intensif   IFR Très Intensif
Visi : 
Plafond : 
>= 8 km
>= 3000ft
5 à 8 km
1000 à 3000 ft
1500m à 5 km
500 à 1000 ft
800 à 1500m
200 à 500 ft
< 800m
< 200 ft
Symboles :   Orages  Brouillard  Fortes neiges  Fortes précipitations  Vent > 20 kt
SIGMETs :   Divers  Orages  Givrage  Turbulence  Onde Orograph.  Cendres Volcan.






- Altitude de l'aérodrome : 375 ft
- Code IATA : MST


EHBK - Maastricht Aachen

DERNIER METAR :
  • 270525Z AUTO 21005KT 9999 NSC 12/07 Q1033 NOSIG

METARs EXPIRÉS :
  • 270455Z AUTO 21006KT 9999 NSC 11/07 Q1033 NOSIG
  • 270425Z AUTO 20004KT 9999 NCD 11/06 Q1033 NOSIG
  • 270355Z AUTO 19004KT 9999 NSC 10/05 Q1033 NOSIG
  • 270325Z AUTO 20003KT 9999 NCD 10/06 Q1033
  • 270255Z AUTO 19003KT 9999 NCD 10/06 Q1033

TAF TAF EHBK
Valide du 27 à 06h jusqu'au 28 à 12h UTC


270512Z 2706/2812 VRB03KT CAVOK
BECMG 2714/2717 35010KT
BECMG 2721/2724 04009KT



MET'MAP, la Météo Aéronautique d'un coup d'oeil ! - Copyright ORBIFLY Décembre 2007 - Disclaimer

ORBIFLY MET'MAP TEAM :

Programmation & Développement : Alexandra Zaïnal
Sur une idée originale de : Baudouin d'Aumeries
Assistance à la programmation : Marc-Olivier Méhu
Soutien technique & logistique : Manuel Goepfert

Contact : metmap@orbifly.com




SOURCES & CREDITS :

   NOAA